sensor_id;sensor_type;location;lat;lon;timestamp;P1;durP1;ratioP1;P2;durP2;ratioP2
71637;SDS011;59485;43.542;-5.676;2022-09-09T00:01:46;7.57;;;2.50;;
71637;SDS011;59485;43.542;-5.676;2022-09-09T00:09:28;7.55;;;1.80;;
71637;SDS011;59485;43.542;-5.676;2022-09-09T00:12:04;12.43;;;2.10;;
71637;SDS011;59485;43.542;-5.676;2022-09-09T00:20:13;8.45;;;1.75;;
71637;SDS011;59485;43.542;-5.676;2022-09-09T00:22:48;8.13;;;1.75;;
71637;SDS011;59485;43.542;-5.676;2022-09-09T00:25:28;9.17;;;1.83;;
71637;SDS011;59485;43.542;-5.676;2022-09-09T00:28:08;7.80;;;1.75;;
71637;SDS011;59485;43.542;-5.676;2022-09-09T00:30:43;8.25;;;1.90;;
71637;SDS011;59485;43.542;-5.676;2022-09-09T00:33:12;10.03;;;1.63;;
71637;SDS011;59485;43.542;-5.676;2022-09-09T00:35:47;11.80;;;1.75;;
71637;SDS011;59485;43.542;-5.676;2022-09-09T00:40:50;10.50;;;1.80;;
71637;SDS011;59485;43.542;-5.676;2022-09-09T00:43:25;11.57;;;2.03;;
71637;SDS011;59485;43.542;-5.676;2022-09-09T00:46:03;10.00;;;1.73;;
71637;SDS011;59485;43.542;-5.676;2022-09-09T00:49:00;9.50;;;2.13;;
71637;SDS011;59485;43.542;-5.676;2022-09-09T00:57:35;11.95;;;2.67;;
71637;SDS011;59485;43.542;-5.676;2022-09-09T01:02:48;9.88;;;1.85;;
71637;SDS011;59485;43.542;-5.676;2022-09-09T01:08:13;13.88;;;3.13;;
71637;SDS011;59485;43.542;-5.676;2022-09-09T01:10:51;11.25;;;1.70;;
71637;SDS011;59485;43.542;-5.676;2022-09-09T01:13:22;11.60;;;1.40;;
71637;SDS011;59485;43.542;-5.676;2022-09-09T01:15:56;13.43;;;1.48;;
71637;SDS011;59485;43.542;-5.676;2022-09-09T01:18:26;10.93;;;1.73;;
71637;SDS011;59485;43.542;-5.676;2022-09-09T01:26:44;7.68;;;1.55;;
71637;SDS011;59485;43.542;-5.676;2022-09-09T01:29:12;9.80;;;1.92;;
71637;SDS011;59485;43.542;-5.676;2022-09-09T01:31:51;6.87;;;0.80;;
71637;SDS011;59485;43.542;-5.676;2022-09-09T01:34:17;8.25;;;1.20;;
71637;SDS011;59485;43.542;-5.676;2022-09-09T01:36:44;10.40;;;1.20;;
71637;SDS011;59485;43.542;-5.676;2022-09-09T01:39:16;8.80;;;1.52;;
71637;SDS011;59485;43.542;-5.676;2022-09-09T01:41:42;7.30;;;1.03;;
71637;SDS011;59485;43.542;-5.676;2022-09-09T01:44:07;6.57;;;0.80;;
71637;SDS011;59485;43.542;-5.676;2022-09-09T01:46:34;11.13;;;0.93;;
71637;SDS011;59485;43.542;-5.676;2022-09-09T01:48:59;9.67;;;1.13;;
71637;SDS011;59485;43.542;-5.676;2022-09-09T01:51:27;7.50;;;1.10;;
71637;SDS011;59485;43.542;-5.676;2022-09-09T01:53:53;10.13;;;1.08;;
71637;SDS011;59485;43.542;-5.676;2022-09-09T01:56:25;7.10;;;0.90;;
71637;SDS011;59485;43.542;-5.676;2022-09-09T02:04:43;7.67;;;1.70;;
71637;SDS011;59485;43.542;-5.676;2022-09-09T02:10:01;10.50;;;2.00;;
71637;SDS011;59485;43.542;-5.676;2022-09-09T02:12:35;13.82;;;1.85;;
71637;SDS011;59485;43.542;-5.676;2022-09-09T02:15:03;9.27;;;1.90;;
71637;SDS011;59485;43.542;-5.676;2022-09-09T02:17:35;8.10;;;1.10;;
71637;SDS011;59485;43.542;-5.676;2022-09-09T02:20:07;8.55;;;1.60;;
71637;SDS011;59485;43.542;-5.676;2022-09-09T02:22:37;7.97;;;0.98;;
71637;SDS011;59485;43.542;-5.676;2022-09-09T02:25:07;8.35;;;1.23;;
71637;SDS011;59485;43.542;-5.676;2022-09-09T02:27:35;6.18;;;1.48;;
71637;SDS011;59485;43.542;-5.676;2022-09-09T02:30:01;9.07;;;1.67;;
71637;SDS011;59485;43.542;-5.676;2022-09-09T02:32:28;6.78;;;0.70;;
71637;SDS011;59485;43.542;-5.676;2022-09-09T02:34:58;9.13;;;1.10;;
71637;SDS011;59485;43.542;-5.676;2022-09-09T02:37:32;5.60;;;1.25;;
71637;SDS011;59485;43.542;-5.676;2022-09-09T02:40:06;11.70;;;1.37;;
71637;SDS011;59485;43.542;-5.676;2022-09-09T02:42:41;6.88;;;1.23;;
71637;SDS011;59485;43.542;-5.676;2022-09-09T02:45:09;11.13;;;1.33;;
71637;SDS011;59485;43.542;-5.676;2022-09-09T02:47:47;8.82;;;1.27;;
71637;SDS011;59485;43.542;-5.676;2022-09-09T02:55:46;6.72;;;0.88;;
71637;SDS011;59485;43.542;-5.676;2022-09-09T02:58:14;7.68;;;1.27;;
71637;SDS011;59485;43.542;-5.676;2022-09-09T03:00:42;11.23;;;1.88;;
71637;SDS011;59485;43.542;-5.676;2022-09-09T03:03:11;9.63;;;1.15;;
71637;SDS011;59485;43.542;-5.676;2022-09-09T03:05:36;6.57;;;1.23;;
71637;SDS011;59485;43.542;-5.676;2022-09-09T03:08:03;9.03;;;2.03;;
71637;SDS011;59485;43.542;-5.676;2022-09-09T03:10:30;16.60;;;2.65;;
71637;SDS011;59485;43.542;-5.676;2022-09-09T03:12:56;15.57;;;3.45;;
71637;SDS011;59485;43.542;-5.676;2022-09-09T03:15:22;10.63;;;2.40;;
71637;SDS011;59485;43.542;-5.676;2022-09-09T03:17:47;6.23;;;1.50;;
71637;SDS011;59485;43.542;-5.676;2022-09-09T03:20:13;7.40;;;1.47;;
71637;SDS011;59485;43.542;-5.676;2022-09-09T03:22:38;6.53;;;1.07;;
71637;SDS011;59485;43.542;-5.676;2022-09-09T03:25:04;9.33;;;1.07;;
71637;SDS011;59485;43.542;-5.676;2022-09-09T03:27:30;8.75;;;1.30;;
71637;SDS011;59485;43.542;-5.676;2022-09-09T03:29:56;8.98;;;2.00;;
71637;SDS011;59485;43.542;-5.676;2022-09-09T03:32:22;7.97;;;1.52;;
71637;SDS011;59485;43.542;-5.676;2022-09-09T03:34:49;4.80;;;1.13;;
71637;SDS011;59485;43.542;-5.676;2022-09-09T03:37:15;7.85;;;1.40;;
71637;SDS011;59485;43.542;-5.676;2022-09-09T03:39:42;7.63;;;1.08;;
71637;SDS011;59485;43.542;-5.676;2022-09-09T03:42:08;4.93;;;0.80;;
71637;SDS011;59485;43.542;-5.676;2022-09-09T03:44:33;6.27;;;0.90;;
71637;SDS011;59485;43.542;-5.676;2022-09-09T03:46:59;9.38;;;0.90;;
71637;SDS011;59485;43.542;-5.676;2022-09-09T03:49:26;6.63;;;1.00;;
71637;SDS011;59485;43.542;-5.676;2022-09-09T03:51:54;7.53;;;1.20;;
71637;SDS011;59485;43.542;-5.676;2022-09-09T03:54:24;9.15;;;1.60;;
71637;SDS011;59485;43.542;-5.676;2022-09-09T03:56:50;11.07;;;1.10;;
71637;SDS011;59485;43.542;-5.676;2022-09-09T03:59:16;7.20;;;1.30;;
71637;SDS011;59485;43.542;-5.676;2022-09-09T04:01:41;6.85;;;1.10;;
71637;SDS011;59485;43.542;-5.676;2022-09-09T04:04:07;6.53;;;0.90;;
71637;SDS011;59485;43.542;-5.676;2022-09-09T04:06:34;6.13;;;1.23;;
71637;SDS011;59485;43.542;-5.676;2022-09-09T04:09:01;11.60;;;1.48;;
71637;SDS011;59485;43.542;-5.676;2022-09-09T04:11:28;10.20;;;1.45;;
71637;SDS011;59485;43.542;-5.676;2022-09-09T04:13:54;7.33;;;0.90;;
71637;SDS011;59485;43.542;-5.676;2022-09-09T04:16:20;9.65;;;1.48;;
71637;SDS011;59485;43.542;-5.676;2022-09-09T04:18:45;8.07;;;1.37;;
71637;SDS011;59485;43.542;-5.676;2022-09-09T04:21:11;7.35;;;1.50;;
71637;SDS011;59485;43.542;-5.676;2022-09-09T04:23:38;5.90;;;1.30;;
71637;SDS011;59485;43.542;-5.676;2022-09-09T04:26:04;7.33;;;1.23;;
71637;SDS011;59485;43.542;-5.676;2022-09-09T04:28:32;10.70;;;0.90;;
71637;SDS011;59485;43.542;-5.676;2022-09-09T04:31:09;8.48;;;1.45;;
71637;SDS011;59485;43.542;-5.676;2022-09-09T04:33:39;6.85;;;1.00;;
71637;SDS011;59485;43.542;-5.676;2022-09-09T04:36:05;7.10;;;1.33;;
71637;SDS011;59485;43.542;-5.676;2022-09-09T04:38:31;12.68;;;1.48;;
71637;SDS011;59485;43.542;-5.676;2022-09-09T04:40:56;9.00;;;1.13;;
71637;SDS011;59485;43.542;-5.676;2022-09-09T04:43:22;8.15;;;1.30;;
71637;SDS011;59485;43.542;-5.676;2022-09-09T04:45:48;7.67;;;1.27;;
71637;SDS011;59485;43.542;-5.676;2022-09-09T04:48:15;8.40;;;1.00;;
71637;SDS011;59485;43.542;-5.676;2022-09-09T04:50:41;8.75;;;1.55;;
71637;SDS011;59485;43.542;-5.676;2022-09-09T04:53:06;4.87;;;1.00;;
71637;SDS011;59485;43.542;-5.676;2022-09-09T04:55:32;8.98;;;1.70;;
71637;SDS011;59485;43.542;-5.676;2022-09-09T04:58:03;8.53;;;0.87;;
71637;SDS011;59485;43.542;-5.676;2022-09-09T05:00:30;8.50;;;1.17;;
71637;SDS011;59485;43.542;-5.676;2022-09-09T05:02:56;10.82;;;1.23;;
71637;SDS011;59485;43.542;-5.676;2022-09-09T05:05:21;12.00;;;1.13;;
71637;SDS011;59485;43.542;-5.676;2022-09-09T05:07:47;5.68;;;1.25;;
71637;SDS011;59485;43.542;-5.676;2022-09-09T05:10:13;7.55;;;1.10;;
71637;SDS011;59485;43.542;-5.676;2022-09-09T05:12:41;12.20;;;1.20;;
71637;SDS011;59485;43.542;-5.676;2022-09-09T05:15:06;8.95;;;1.10;;
71637;SDS011;59485;43.542;-5.676;2022-09-09T05:17:32;8.32;;;1.45;;
71637;SDS011;59485;43.542;-5.676;2022-09-09T05:19:58;8.03;;;1.30;;
71637;SDS011;59485;43.542;-5.676;2022-09-09T05:22:24;6.63;;;0.80;;
71637;SDS011;59485;43.542;-5.676;2022-09-09T05:24:49;9.40;;;0.90;;
71637;SDS011;59485;43.542;-5.676;2022-09-09T05:27:18;7.35;;;1.13;;
71637;SDS011;59485;43.542;-5.676;2022-09-09T05:29:44;9.00;;;1.17;;
71637;SDS011;59485;43.542;-5.676;2022-09-09T05:32:10;6.97;;;1.13;;
71637;SDS011;59485;43.542;-5.676;2022-09-09T05:34:36;9.48;;;1.10;;
71637;SDS011;59485;43.542;-5.676;2022-09-09T05:37:03;7.80;;;1.52;;
71637;SDS011;59485;43.542;-5.676;2022-09-09T05:39:29;8.30;;;1.10;;
71637;SDS011;59485;43.542;-5.676;2022-09-09T05:41:55;8.23;;;1.65;;
71637;SDS011;59485;43.542;-5.676;2022-09-09T05:44:21;11.53;;;1.53;;
71637;SDS011;59485;43.542;-5.676;2022-09-09T05:46:48;10.18;;;1.17;;
71637;SDS011;59485;43.542;-5.676;2022-09-09T05:49:14;8.52;;;1.00;;
71637;SDS011;59485;43.542;-5.676;2022-09-09T05:51:40;7.03;;;0.98;;
71637;SDS011;59485;43.542;-5.676;2022-09-09T05:54:07;6.95;;;1.10;;
71637;SDS011;59485;43.542;-5.676;2022-09-09T05:56:33;7.23;;;1.17;;
71637;SDS011;59485;43.542;-5.676;2022-09-09T05:58:59;9.40;;;0.98;;
71637;SDS011;59485;43.542;-5.676;2022-09-09T06:01:29;9.38;;;1.33;;
71637;SDS011;59485;43.542;-5.676;2022-09-09T06:03:56;8.57;;;1.00;;
71637;SDS011;59485;43.542;-5.676;2022-09-09T06:06:22;7.22;;;1.02;;
71637;SDS011;59485;43.542;-5.676;2022-09-09T06:08:51;9.88;;;1.58;;
71637;SDS011;59485;43.542;-5.676;2022-09-09T06:11:19;8.87;;;1.20;;
71637;SDS011;59485;43.542;-5.676;2022-09-09T06:13:50;6.07;;;1.35;;
71637;SDS011;59485;43.542;-5.676;2022-09-09T06:16:23;7.60;;;1.50;;
71637;SDS011;59485;43.542;-5.676;2022-09-09T06:18:50;11.65;;;1.20;;
71637;SDS011;59485;43.542;-5.676;2022-09-09T06:21:19;10.43;;;1.17;;
71637;SDS011;59485;43.542;-5.676;2022-09-09T06:23:49;8.03;;;1.20;;
71637;SDS011;59485;43.542;-5.676;2022-09-09T06:26:22;9.55;;;1.35;;
71637;SDS011;59485;43.542;-5.676;2022-09-09T06:28:51;7.15;;;1.20;;
71637;SDS011;59485;43.542;-5.676;2022-09-09T06:31:19;12.25;;;1.70;;
71637;SDS011;59485;43.542;-5.676;2022-09-09T06:33:47;10.15;;;1.65;;
71637;SDS011;59485;43.542;-5.676;2022-09-09T06:36:33;6.73;;;1.37;;
71637;SDS011;59485;43.542;-5.676;2022-09-09T06:39:01;9.80;;;1.33;;
71637;SDS011;59485;43.542;-5.676;2022-09-09T06:41:29;10.85;;;1.60;;
71637;SDS011;59485;43.542;-5.676;2022-09-09T06:43:56;8.73;;;2.30;;
71637;SDS011;59485;43.542;-5.676;2022-09-09T06:46:23;11.82;;;2.00;;
71637;SDS011;59485;43.542;-5.676;2022-09-09T06:48:54;10.27;;;2.03;;
71637;SDS011;59485;43.542;-5.676;2022-09-09T06:51:21;9.25;;;1.75;;
71637;SDS011;59485;43.542;-5.676;2022-09-09T06:53:52;8.25;;;2.05;;
71637;SDS011;59485;43.542;-5.676;2022-09-09T06:58:48;9.95;;;2.15;;
71637;SDS011;59485;43.542;-5.676;2022-09-09T07:01:16;7.00;;;1.70;;
71637;SDS011;59485;43.542;-5.676;2022-09-09T07:03:47;10.77;;;2.33;;
71637;SDS011;59485;43.542;-5.676;2022-09-09T07:06:18;10.27;;;2.70;;
71637;SDS011;59485;43.542;-5.676;2022-09-09T07:08:50;8.63;;;2.25;;
71637;SDS011;59485;43.542;-5.676;2022-09-09T07:11:20;10.05;;;3.00;;
71637;SDS011;59485;43.542;-5.676;2022-09-09T07:13:47;8.97;;;1.93;;
71637;SDS011;59485;43.542;-5.676;2022-09-09T07:16:17;10.45;;;1.45;;
71637;SDS011;59485;43.542;-5.676;2022-09-09T07:18:45;7.47;;;1.70;;
71637;SDS011;59485;43.542;-5.676;2022-09-09T07:21:12;7.50;;;2.03;;
71637;SDS011;59485;43.542;-5.676;2022-09-09T07:23:41;8.55;;;1.83;;
71637;SDS011;59485;43.542;-5.676;2022-09-09T07:26:08;8.70;;;1.80;;
71637;SDS011;59485;43.542;-5.676;2022-09-09T07:28:38;12.98;;;1.90;;
71637;SDS011;59485;43.542;-5.676;2022-09-09T07:31:06;8.25;;;1.60;;
71637;SDS011;59485;43.542;-5.676;2022-09-09T07:33:38;9.43;;;2.03;;
71637;SDS011;59485;43.542;-5.676;2022-09-09T07:38:46;6.88;;;1.75;;
71637;SDS011;59485;43.542;-5.676;2022-09-09T07:41:21;8.02;;;2.15;;
71637;SDS011;59485;43.542;-5.676;2022-09-09T07:43:50;10.65;;;2.10;;
71637;SDS011;59485;43.542;-5.676;2022-09-09T07:46:19;7.57;;;1.92;;
71637;SDS011;59485;43.542;-5.676;2022-09-09T07:48:47;10.30;;;1.90;;
71637;SDS011;59485;43.542;-5.676;2022-09-09T07:51:27;9.52;;;2.08;;
71637;SDS011;59485;43.542;-5.676;2022-09-09T07:53:56;8.82;;;3.50;;
71637;SDS011;59485;43.542;-5.676;2022-09-09T07:56:25;11.32;;;3.35;;
71637;SDS011;59485;43.542;-5.676;2022-09-09T07:58:52;10.68;;;2.85;;
71637;SDS011;59485;43.542;-5.676;2022-09-09T08:01:26;10.13;;;2.93;;
71637;SDS011;59485;43.542;-5.676;2022-09-09T08:03:57;8.70;;;1.77;;
71637;SDS011;59485;43.542;-5.676;2022-09-09T08:06:27;9.65;;;2.08;;
71637;SDS011;59485;43.542;-5.676;2022-09-09T08:08:54;11.05;;;2.40;;
71637;SDS011;59485;43.542;-5.676;2022-09-09T08:11:20;12.37;;;3.00;;
71637;SDS011;59485;43.542;-5.676;2022-09-09T08:13:48;12.55;;;3.53;;
71637;SDS011;59485;43.542;-5.676;2022-09-09T08:16:16;11.50;;;3.35;;
71637;SDS011;59485;43.542;-5.676;2022-09-09T08:18:43;13.00;;;4.40;;
71637;SDS011;59485;43.542;-5.676;2022-09-09T08:21:13;10.37;;;4.00;;
71637;SDS011;59485;43.542;-5.676;2022-09-09T08:23:50;8.52;;;3.28;;
71637;SDS011;59485;43.542;-5.676;2022-09-09T08:26:18;12.23;;;3.80;;
71637;SDS011;59485;43.542;-5.676;2022-09-09T08:28:49;10.18;;;3.50;;
71637;SDS011;59485;43.542;-5.676;2022-09-09T08:31:22;14.38;;;3.35;;
71637;SDS011;59485;43.542;-5.676;2022-09-09T08:33:49;13.23;;;3.83;;
71637;SDS011;59485;43.542;-5.676;2022-09-09T08:36:16;13.50;;;4.32;;
71637;SDS011;59485;43.542;-5.676;2022-09-09T08:38:48;10.95;;;3.70;;
71637;SDS011;59485;43.542;-5.676;2022-09-09T08:43:58;7.75;;;2.75;;
71637;SDS011;59485;43.542;-5.676;2022-09-09T08:48:57;10.55;;;2.80;;
71637;SDS011;59485;43.542;-5.676;2022-09-09T08:51:32;7.60;;;2.67;;
71637;SDS011;59485;43.542;-5.676;2022-09-09T08:53:58;10.10;;;2.77;;
71637;SDS011;59485;43.542;-5.676;2022-09-09T08:56:27;14.85;;;3.88;;
71637;SDS011;59485;43.542;-5.676;2022-09-09T08:58:55;10.82;;;3.78;;
71637;SDS011;59485;43.542;-5.676;2022-09-09T09:12:15;10.88;;;3.80;;
71637;SDS011;59485;43.542;-5.676;2022-09-09T09:14:46;10.73;;;3.67;;
71637;SDS011;59485;43.542;-5.676;2022-09-09T09:17:14;9.65;;;3.38;;
71637;SDS011;59485;43.542;-5.676;2022-09-09T09:19:42;14.38;;;7.78;;
71637;SDS011;59485;43.542;-5.676;2022-09-09T09:30:36;8.32;;;1.85;;
71637;SDS011;59485;43.542;-5.676;2022-09-09T09:35:45;13.13;;;3.72;;
71637;SDS011;59485;43.542;-5.676;2022-09-09T09:38:21;15.10;;;7.33;;
71637;SDS011;59485;43.542;-5.676;2022-09-09T09:40:51;8.73;;;3.97;;
71637;SDS011;59485;43.542;-5.676;2022-09-09T09:43:32;9.55;;;2.90;;
71637;SDS011;59485;43.542;-5.676;2022-09-09T09:46:02;11.40;;;3.10;;
71637;SDS011;59485;43.542;-5.676;2022-09-09T09:48:29;7.32;;;1.92;;
71637;SDS011;59485;43.542;-5.676;2022-09-09T09:51:03;9.20;;;2.10;;
71637;SDS011;59485;43.542;-5.676;2022-09-09T09:53:36;6.88;;;1.60;;
71637;SDS011;59485;43.542;-5.676;2022-09-09T09:56:03;5.45;;;1.95;;
71637;SDS011;59485;43.542;-5.676;2022-09-09T10:01:28;8.23;;;2.03;;
71637;SDS011;59485;43.542;-5.676;2022-09-09T10:04:17;7.10;;;2.50;;
71637;SDS011;59485;43.542;-5.676;2022-09-09T10:06:48;6.43;;;2.03;;
71637;SDS011;59485;43.542;-5.676;2022-09-09T10:09:21;9.27;;;2.65;;
71637;SDS011;59485;43.542;-5.676;2022-09-09T10:12:01;9.43;;;4.40;;
71637;SDS011;59485;43.542;-5.676;2022-09-09T10:15:07;8.45;;;3.40;;
71637;SDS011;59485;43.542;-5.676;2022-09-09T10:26:08;9.70;;;2.10;;
71637;SDS011;59485;43.542;-5.676;2022-09-09T10:31:31;4.65;;;1.35;;
71637;SDS011;59485;43.542;-5.676;2022-09-09T10:36:53;6.55;;;1.52;;
71637;SDS011;59485;43.542;-5.676;2022-09-09T10:39:37;5.00;;;1.23;;
71637;SDS011;59485;43.542;-5.676;2022-09-09T10:42:14;6.38;;;1.42;;
71637;SDS011;59485;43.542;-5.676;2022-09-09T10:47:20;4.30;;;0.93;;
71637;SDS011;59485;43.542;-5.676;2022-09-09T10:55:38;5.47;;;1.25;;
71637;SDS011;59485;43.542;-5.676;2022-09-09T10:58:14;7.97;;;1.30;;
71637;SDS011;59485;43.542;-5.676;2022-09-09T11:00:52;5.50;;;1.30;;
71637;SDS011;59485;43.542;-5.676;2022-09-09T11:03:26;5.07;;;1.00;;
71637;SDS011;59485;43.542;-5.676;2022-09-09T11:08:30;8.15;;;1.10;;
71637;SDS011;59485;43.542;-5.676;2022-09-09T11:11:03;8.77;;;1.60;;
71637;SDS011;59485;43.542;-5.676;2022-09-09T11:18:51;6.82;;;1.55;;
71637;SDS011;59485;43.542;-5.676;2022-09-09T11:21:42;8.40;;;0.95;;
71637;SDS011;59485;43.542;-5.676;2022-09-09T11:27:11;6.23;;;1.27;;
71637;SDS011;59485;43.542;-5.676;2022-09-09T11:40:43;9.20;;;1.13;;
71637;SDS011;59485;43.542;-5.676;2022-09-09T11:43:10;5.72;;;1.50;;
71637;SDS011;59485;43.542;-5.676;2022-09-09T11:45:38;6.28;;;1.50;;
71637;SDS011;59485;43.542;-5.676;2022-09-09T11:48:05;7.72;;;0.90;;
71637;SDS011;59485;43.542;-5.676;2022-09-09T11:51:25;8.40;;;1.52;;
71637;SDS011;59485;43.542;-5.676;2022-09-09T11:53:57;6.13;;;0.87;;
71637;SDS011;59485;43.542;-5.676;2022-09-09T11:56:34;7.13;;;1.35;;
71637;SDS011;59485;43.542;-5.676;2022-09-09T11:59:22;7.68;;;1.33;;
71637;SDS011;59485;43.542;-5.676;2022-09-09T12:01:59;7.60;;;1.20;;
71637;SDS011;59485;43.542;-5.676;2022-09-09T12:04:38;7.43;;;1.70;;
71637;SDS011;59485;43.542;-5.676;2022-09-09T12:17:42;7.45;;;1.60;;
71637;SDS011;59485;43.542;-5.676;2022-09-09T12:28:21;8.07;;;1.50;;
71637;SDS011;59485;43.542;-5.676;2022-09-09T12:33:35;6.37;;;1.33;;
71637;SDS011;59485;43.542;-5.676;2022-09-09T12:36:04;5.68;;;1.20;;
71637;SDS011;59485;43.542;-5.676;2022-09-09T12:38:38;6.93;;;1.65;;
71637;SDS011;59485;43.542;-5.676;2022-09-09T12:41:06;7.35;;;1.58;;
71637;SDS011;59485;43.542;-5.676;2022-09-09T12:43:44;7.00;;;1.60;;
71637;SDS011;59485;43.542;-5.676;2022-09-09T12:46:12;7.60;;;1.50;;
71637;SDS011;59485;43.542;-5.676;2022-09-09T12:48:47;6.38;;;1.35;;
71637;SDS011;59485;43.542;-5.676;2022-09-09T12:51:21;5.10;;;1.30;;
71637;SDS011;59485;43.542;-5.676;2022-09-09T12:53:50;5.82;;;1.00;;
71637;SDS011;59485;43.542;-5.676;2022-09-09T12:56:20;7.47;;;0.90;;
71637;SDS011;59485;43.542;-5.676;2022-09-09T12:58:50;7.57;;;1.53;;
71637;SDS011;59485;43.542;-5.676;2022-09-09T13:01:21;5.40;;;1.55;;
71637;SDS011;59485;43.542;-5.676;2022-09-09T13:03:49;5.07;;;1.40;;
71637;SDS011;59485;43.542;-5.676;2022-09-09T13:06:20;6.55;;;1.40;;
71637;SDS011;59485;43.542;-5.676;2022-09-09T13:08:47;7.07;;;1.60;;
71637;SDS011;59485;43.542;-5.676;2022-09-09T13:11:15;8.10;;;1.30;;
71637;SDS011;59485;43.542;-5.676;2022-09-09T13:13:50;3.92;;;1.17;;
71637;SDS011;59485;43.542;-5.676;2022-09-09T13:16:28;5.10;;;1.20;;
71637;SDS011;59485;43.542;-5.676;2022-09-09T13:19:02;6.22;;;1.33;;
71637;SDS011;59485;43.542;-5.676;2022-09-09T13:21:34;5.57;;;1.30;;
71637;SDS011;59485;43.542;-5.676;2022-09-09T13:24:03;6.97;;;1.13;;
71637;SDS011;59485;43.542;-5.676;2022-09-09T13:26:33;6.43;;;1.73;;
71637;SDS011;59485;43.542;-5.676;2022-09-09T13:32:03;7.30;;;1.10;;
71637;SDS011;59485;43.542;-5.676;2022-09-09T13:34:50;7.57;;;1.38;;
71637;SDS011;59485;43.542;-5.676;2022-09-09T13:40:04;8.82;;;1.75;;
71637;SDS011;59485;43.542;-5.676;2022-09-09T13:42:32;7.93;;;1.55;;
71637;SDS011;59485;43.542;-5.676;2022-09-09T13:45:03;7.20;;;1.30;;
71637;SDS011;59485;43.542;-5.676;2022-09-09T13:47:32;7.53;;;1.38;;
71637;SDS011;59485;43.542;-5.676;2022-09-09T13:50:44;6.77;;;1.47;;
71637;SDS011;59485;43.542;-5.676;2022-09-09T13:52:46;9.18;;;1.88;;
71637;SDS011;59485;43.542;-5.676;2022-09-09T13:55:12;5.28;;;1.60;;
71637;SDS011;59485;43.542;-5.676;2022-09-09T13:57:38;6.57;;;1.55;;
71637;SDS011;59485;43.542;-5.676;2022-09-09T14:00:03;6.30;;;1.17;;
71637;SDS011;59485;43.542;-5.676;2022-09-09T14:02:30;5.53;;;1.45;;
71637;SDS011;59485;43.542;-5.676;2022-09-09T14:04:56;8.43;;;1.43;;
71637;SDS011;59485;43.542;-5.676;2022-09-09T14:07:22;6.37;;;1.43;;
71637;SDS011;59485;43.542;-5.676;2022-09-09T14:09:47;4.67;;;1.20;;
71637;SDS011;59485;43.542;-5.676;2022-09-09T14:12:15;6.78;;;1.05;;
71637;SDS011;59485;43.542;-5.676;2022-09-09T14:14:41;5.65;;;1.42;;
71637;SDS011;59485;43.542;-5.676;2022-09-09T14:17:08;4.77;;;1.60;;
71637;SDS011;59485;43.542;-5.676;2022-09-09T14:19:34;5.38;;;1.50;;
71637;SDS011;59485;43.542;-5.676;2022-09-09T14:22:00;5.95;;;1.10;;
71637;SDS011;59485;43.542;-5.676;2022-09-09T14:24:26;7.20;;;1.10;;
71637;SDS011;59485;43.542;-5.676;2022-09-09T14:26:52;4.70;;;1.03;;
71637;SDS011;59485;43.542;-5.676;2022-09-09T14:29:18;6.00;;;1.08;;
71637;SDS011;59485;43.542;-5.676;2022-09-09T14:31:44;4.63;;;1.00;;
71637;SDS011;59485;43.542;-5.676;2022-09-09T14:34:09;5.18;;;1.02;;
71637;SDS011;59485;43.542;-5.676;2022-09-09T14:36:36;7.93;;;1.30;;
71637;SDS011;59485;43.542;-5.676;2022-09-09T14:39:04;6.20;;;1.23;;
71637;SDS011;59485;43.542;-5.676;2022-09-09T14:41:29;5.60;;;1.02;;
71637;SDS011;59485;43.542;-5.676;2022-09-09T14:43:55;6.63;;;1.00;;
71637;SDS011;59485;43.542;-5.676;2022-09-09T14:46:21;6.15;;;1.13;;
71637;SDS011;59485;43.542;-5.676;2022-09-09T14:48:50;7.60;;;1.50;;
71637;SDS011;59485;43.542;-5.676;2022-09-09T14:51:17;7.37;;;1.20;;
71637;SDS011;59485;43.542;-5.676;2022-09-09T14:53:52;5.95;;;1.05;;
71637;SDS011;59485;43.542;-5.676;2022-09-09T14:56:20;5.28;;;0.73;;
71637;SDS011;59485;43.542;-5.676;2022-09-09T14:58:48;4.78;;;0.80;;
71637;SDS011;59485;43.542;-5.676;2022-09-09T15:01:15;6.22;;;1.10;;
71637;SDS011;59485;43.542;-5.676;2022-09-09T15:03:44;6.43;;;0.70;;
71637;SDS011;59485;43.542;-5.676;2022-09-09T15:06:14;7.15;;;1.20;;
71637;SDS011;59485;43.542;-5.676;2022-09-09T15:08:41;8.25;;;1.63;;
71637;SDS011;59485;43.542;-5.676;2022-09-09T15:11:08;5.93;;;1.00;;
71637;SDS011;59485;43.542;-5.676;2022-09-09T15:13:35;5.47;;;1.23;;
71637;SDS011;59485;43.542;-5.676;2022-09-09T15:16:08;4.00;;;0.73;;
71637;SDS011;59485;43.542;-5.676;2022-09-09T15:18:42;6.30;;;0.70;;
71637;SDS011;59485;43.542;-5.676;2022-09-09T15:21:13;5.38;;;0.85;;
71637;SDS011;59485;43.542;-5.676;2022-09-09T15:23:41;6.47;;;1.05;;
71637;SDS011;59485;43.542;-5.676;2022-09-09T15:26:07;4.85;;;0.80;;
71637;SDS011;59485;43.542;-5.676;2022-09-09T15:28:34;6.17;;;0.87;;
71637;SDS011;59485;43.542;-5.676;2022-09-09T15:31:06;7.97;;;1.30;;
71637;SDS011;59485;43.542;-5.676;2022-09-09T15:33:35;5.97;;;1.02;;
71637;SDS011;59485;43.542;-5.676;2022-09-09T15:38:42;4.15;;;1.10;;
71637;SDS011;59485;43.542;-5.676;2022-09-09T15:41:09;5.60;;;1.20;;
71637;SDS011;59485;43.542;-5.676;2022-09-09T15:43:35;5.43;;;1.02;;
71637;SDS011;59485;43.542;-5.676;2022-09-09T15:46:09;9.88;;;1.55;;
71637;SDS011;59485;43.542;-5.676;2022-09-09T15:49:14;5.47;;;0.80;;
71637;SDS011;59485;43.542;-5.676;2022-09-09T15:54:21;7.93;;;1.33;;
71637;SDS011;59485;43.542;-5.676;2022-09-09T15:56:52;4.68;;;0.98;;
71637;SDS011;59485;43.542;-5.676;2022-09-09T15:59:21;8.85;;;1.17;;
71637;SDS011;59485;43.542;-5.676;2022-09-09T16:01:47;5.50;;;1.60;;
71637;SDS011;59485;43.542;-5.676;2022-09-09T16:04:16;5.78;;;0.73;;
71637;SDS011;59485;43.542;-5.676;2022-09-09T16:06:49;6.97;;;1.05;;
71637;SDS011;59485;43.542;-5.676;2022-09-09T16:09:19;7.45;;;1.35;;
71637;SDS011;59485;43.542;-5.676;2022-09-09T16:11:45;5.90;;;1.03;;
71637;SDS011;59485;43.542;-5.676;2022-09-09T16:14:12;5.53;;;1.35;;
71637;SDS011;59485;43.542;-5.676;2022-09-09T16:16:38;5.03;;;1.30;;
71637;SDS011;59485;43.542;-5.676;2022-09-09T16:19:08;5.30;;;0.70;;
71637;SDS011;59485;43.542;-5.676;2022-09-09T16:21:37;6.20;;;1.08;;
71637;SDS011;59485;43.542;-5.676;2022-09-09T16:24:05;7.13;;;1.20;;
71637;SDS011;59485;43.542;-5.676;2022-09-09T16:26:32;5.40;;;1.48;;
71637;SDS011;59485;43.542;-5.676;2022-09-09T16:28:59;5.93;;;1.23;;
71637;SDS011;59485;43.542;-5.676;2022-09-09T16:31:26;6.43;;;1.00;;
71637;SDS011;59485;43.542;-5.676;2022-09-09T16:33:53;7.05;;;1.13;;
71637;SDS011;59485;43.542;-5.676;2022-09-09T16:36:23;7.40;;;1.27;;
71637;SDS011;59485;43.542;-5.676;2022-09-09T16:38:53;5.90;;;1.07;;
71637;SDS011;59485;43.542;-5.676;2022-09-09T16:41:23;6.80;;;1.30;;
71637;SDS011;59485;43.542;-5.676;2022-09-09T16:46:24;4.68;;;0.85;;
71637;SDS011;59485;43.542;-5.676;2022-09-09T16:48:52;5.18;;;1.38;;
71637;SDS011;59485;43.542;-5.676;2022-09-09T16:51:20;10.90;;;1.00;;
71637;SDS011;59485;43.542;-5.676;2022-09-09T16:53:50;5.63;;;1.27;;
71637;SDS011;59485;43.542;-5.676;2022-09-09T16:56:18;7.32;;;0.85;;
71637;SDS011;59485;43.542;-5.676;2022-09-09T16:59:19;4.00;;;1.17;;
71637;SDS011;59485;43.542;-5.676;2022-09-09T17:01:45;9.45;;;1.05;;
71637;SDS011;59485;43.542;-5.676;2022-09-09T17:04:13;4.93;;;0.93;;
71637;SDS011;59485;43.542;-5.676;2022-09-09T17:06:51;8.90;;;1.05;;
71637;SDS011;59485;43.542;-5.676;2022-09-09T17:09:18;6.82;;;1.08;;
71637;SDS011;59485;43.542;-5.676;2022-09-09T17:11:45;9.63;;;1.23;;
71637;SDS011;59485;43.542;-5.676;2022-09-09T17:14:13;5.50;;;1.15;;
71637;SDS011;59485;43.542;-5.676;2022-09-09T17:16:41;5.73;;;1.13;;
71637;SDS011;59485;43.542;-5.676;2022-09-09T17:19:07;7.57;;;1.20;;
71637;SDS011;59485;43.542;-5.676;2022-09-09T17:21:33;7.28;;;1.30;;
71637;SDS011;59485;43.542;-5.676;2022-09-09T17:23:59;8.07;;;1.57;;
71637;SDS011;59485;43.542;-5.676;2022-09-09T17:26:26;6.65;;;0.93;;